North Attleboro, MA (02763)

2:51 AM EDT on September 02, 2015 (GMT -0400)
Bungay Lake | | Change Station
CLOSE
Current Station
Personal Weather Station
Location: North Attleborough, MA
Elevation: 158 ft
Nearby Weather Stations

Elev 158 ft 41.99 °N, 71.28 °W | Updated 60 seconds ago

Partly Cloudy
Partly Cloudy
63.7 °F
Feels Like 63.7 °F
N
0.0
Wind Variable Wind from SSE
Gusts 1.0 mph

Today
High -- | Low -- °F
--% Chance of Precip.
Yesterday
High -- | Low -- °F
Precip. -- in
6:11 AM 7:17 PM
Waning Gibbous, 83% visible
Pressure 30.04 in
Visibility 5.0 miles
Clouds Clear
Dew Point 62 °F
Humidity 94%
Rainfall 0.00 in
Snow Depth Not available.
UV 0 out of 12
Pollen 9.00 out of 12
Air Quality Not available.
Flu Activity Not available.
METAR KSFZ 020635Z AUTO 21003KT 5SM CLR 17/17 A3004 RMK AO1
Pressure 30.04 in
Visibility 5.0 miles
Clouds Clear
Dew Point 62 °F
Humidity 94%
Rainfall 0.00 in
Snow Depth Not available.
UV 0 out of 12
Pollen 9.00 out of 12
Air Quality Not available.
Flu Activity Not available.
METAR KSFZ 020635Z AUTO 21003KT 5SM CLR 17/17 A3004 RMK AO1

10-Day Weather Forecast

×

Almanac

Astronomy

Sep. 02, 2015 Rise Set
Actual Time
Civil Twilight
Nautical Twilight
Astronomical Twilight
Moon
Length of Visible Light
Length of Day
Tomorrow will be .
, % of the Moon is Illuminated

Today's Extremes

State Highs State Lows

Community

WunderPhotos

Upload Photos

1,851,709 photos uploaded!

WunderBlogs® & News

Nearby

Air Quality

  Air Quality AQ Index Pollutant
Not available.

Snow Depth

Station Depth Elevation

Earthquake Activity

City Distance Mag. Time & Date
Minimum magnitude displayed is 2.5.

Coastal Water Temperatures

Place Temperature

Stations

Nearby Weather Stations

Station Location Temp. Windchill Dew Point Humidity Wind Precip. Elev Updated Type